Hauptseite
METAR-TAF:

METAR-TAF

Flughäfen :

Flughafen Sønderborg

Sønderborg, Dänemark

Breite: 54-58N, Länge: 009-47E, Höhe: 7 m

Beobachtung

Neuester Wetterbericht von vor 32 Minuten, um 21:20 UTC
Wind 5 kt aus West/Südwest
Temperatur 9°C
Luftfeuchtigkeit 87%
Luftdruck 994 hPa
Sichtweite 10 km oder mehr

METAR: EKSB 272120Z AUTO 25005KT 9999 NCD 09/07 Q0994

Zeit: 23:52 (21:52 UTC)

Prognose

Neuester Wetterbericht von vor 3 Stunden und 40 Minuten, um 18:12 UTC
Gültige Prognose vom 27 um 18 UTC bis 27 um 22 UTC
Wind 10 kt aus West/Nordwest
Sichtweite 10 km oder mehr
Aufgelockert bewölkt in der Höhe von 2500 ft
Wahrscheinlichkeit 40%
vom 27 um 20 UTC bis 27 um 22 UTC
Sichtweite: 3000 m
Durchbrochene Bewölkung in der Höhe von 1000 ft
feuchter Dunst

TAF: EKSB 271812Z 2718/2722 30010KT 9999 SCT025 PROB40 2720/2722 3000 BR BKN010

Wetterbeobachtungen und Prognosen von mehr als 4000 Flughäfen (METAR und TAF Bericht).

Die verfügbaren Stationen werden durch gelbe und rote Markierungen auf der Karte dargestellt.

Führen Sie die Maus auf sie, um den Namen der Station zu sehen.

Darauf klicken, um die Beobachtung von Wetterbeobachtungen und Prognosen zu sehen.

Um die Karte zu ändern : klicken Sie auf den grünen Tasten mit einem schwarzen Kreuz Zum Vergrößern, auf den grünen Button mit einem Gedankenstrich zu verkleinern, oder auf die grünen Pfeile für benachbarte Karten.


METAR-TAF: